sensor_id;sensor_type;location;lat;lon;timestamp;temperature;humidity
23130;DHT22;11734;51.046;13.778;2022-11-20T00:00:19;-3.90;99.90
23130;DHT22;11734;51.046;13.778;2022-11-20T00:02:46;-3.90;99.90
23130;DHT22;11734;51.046;13.778;2022-11-20T00:05:13;-3.90;99.90
23130;DHT22;11734;51.046;13.778;2022-11-20T00:07:40;-3.90;99.90
23130;DHT22;11734;51.046;13.778;2022-11-20T00:10:07;-3.90;99.90
23130;DHT22;11734;51.046;13.778;2022-11-20T00:12:34;-3.90;99.90
23130;DHT22;11734;51.046;13.778;2022-11-20T00:15:01;-3.90;99.90
23130;DHT22;11734;51.046;13.778;2022-11-20T00:17:28;-3.90;99.90
23130;DHT22;11734;51.046;13.778;2022-11-20T00:19:55;-3.90;99.90
23130;DHT22;11734;51.046;13.778;2022-11-20T00:22:22;-3.90;99.90
23130;DHT22;11734;51.046;13.778;2022-11-20T00:24:49;-3.90;99.90
23130;DHT22;11734;51.046;13.778;2022-11-20T00:27:16;-3.90;99.90
23130;DHT22;11734;51.046;13.778;2022-11-20T00:29:43;-3.90;99.90
23130;DHT22;11734;51.046;13.778;2022-11-20T00:32:09;-4.00;99.90
23130;DHT22;11734;51.046;13.778;2022-11-20T00:34:36;-4.00;99.90
23130;DHT22;11734;51.046;13.778;2022-11-20T00:37:03;-4.00;99.90
23130;DHT22;11734;51.046;13.778;2022-11-20T00:39:30;-4.10;99.90
23130;DHT22;11734;51.046;13.778;2022-11-20T00:41:57;-4.10;99.90
23130;DHT22;11734;51.046;13.778;2022-11-20T00:44:24;-4.10;99.90
23130;DHT22;11734;51.046;13.778;2022-11-20T00:46:51;-4.00;99.90
23130;DHT22;11734;51.046;13.778;2022-11-20T00:49:18;-4.10;99.90
23130;DHT22;11734;51.046;13.778;2022-11-20T00:51:45;-4.00;99.90
23130;DHT22;11734;51.046;13.778;2022-11-20T00:54:12;-4.10;99.90
23130;DHT22;11734;51.046;13.778;2022-11-20T00:56:39;-4.10;99.90
23130;DHT22;11734;51.046;13.778;2022-11-20T00:59:09;-4.20;99.90
23130;DHT22;11734;51.046;13.778;2022-11-20T01:01:37;-4.20;99.90
23130;DHT22;11734;51.046;13.778;2022-11-20T01:04:04;-4.20;99.90
23130;DHT22;11734;51.046;13.778;2022-11-20T01:06:36;-4.20;99.90
23130;DHT22;11734;51.046;13.778;2022-11-20T01:09:06;-4.30;99.90
23130;DHT22;11734;51.046;13.778;2022-11-20T01:11:36;-4.20;99.90
23130;DHT22;11734;51.046;13.778;2022-11-20T01:14:06;-4.20;99.90
23130;DHT22;11734;51.046;13.778;2022-11-20T01:16:35;-4.20;99.90
23130;DHT22;11734;51.046;13.778;2022-11-20T01:19:04;-4.10;99.90
23130;DHT22;11734;51.046;13.778;2022-11-20T01:21:37;-4.20;99.90
23130;DHT22;11734;51.046;13.778;2022-11-20T01:24:08;-4.20;99.90
23130;DHT22;11734;51.046;13.778;2022-11-20T01:26:38;-4.20;99.90
23130;DHT22;11734;51.046;13.778;2022-11-20T01:29:08;-4.20;99.90
23130;DHT22;11734;51.046;13.778;2022-11-20T01:31:36;-4.20;99.90
23130;DHT22;11734;51.046;13.778;2022-11-20T01:34:06;-4.30;99.90
23130;DHT22;11734;51.046;13.778;2022-11-20T01:36:35;-4.30;99.90
23130;DHT22;11734;51.046;13.778;2022-11-20T01:39:22;-4.30;99.90
23130;DHT22;11734;51.046;13.778;2022-11-20T01:41:52;-4.30;99.90
23130;DHT22;11734;51.046;13.778;2022-11-20T01:44:51;-4.30;99.90
23130;DHT22;11734;51.046;13.778;2022-11-20T01:47:26;-4.40;99.90
23130;DHT22;11734;51.046;13.778;2022-11-20T01:50:00;-4.30;99.90
23130;DHT22;11734;51.046;13.778;2022-11-20T01:52:36;-4.30;99.90
23130;DHT22;11734;51.046;13.778;2022-11-20T01:55:13;-4.30;99.90
23130;DHT22;11734;51.046;13.778;2022-11-20T01:57:41;-4.30;99.90
23130;DHT22;11734;51.046;13.778;2022-11-20T02:00:12;-4.40;99.90
23130;DHT22;11734;51.046;13.778;2022-11-20T02:02:43;-4.40;99.90
23130;DHT22;11734;51.046;13.778;2022-11-20T02:07:52;-4.50;99.90
23130;DHT22;11734;51.046;13.778;2022-11-20T02:10:21;-4.50;99.90
23130;DHT22;11734;51.046;13.778;2022-11-20T02:12:48;-4.60;99.90
23130;DHT22;11734;51.046;13.778;2022-11-20T02:15:33;-4.60;99.90
23130;DHT22;11734;51.046;13.778;2022-11-20T02:18:01;-4.60;99.90
23130;DHT22;11734;51.046;13.778;2022-11-20T02:20:28;-4.60;99.90
23130;DHT22;11734;51.046;13.778;2022-11-20T02:25:46;-4.50;99.90
23130;DHT22;11734;51.046;13.778;2022-11-20T02:28:14;-4.50;99.90
23130;DHT22;11734;51.046;13.778;2022-11-20T02:30:41;-4.50;99.90
23130;DHT22;11734;51.046;13.778;2022-11-20T02:33:08;-4.50;99.90
23130;DHT22;11734;51.046;13.778;2022-11-20T02:38:02;-4.60;99.90
23130;DHT22;11734;51.046;13.778;2022-11-20T02:40:29;-4.60;99.90
23130;DHT22;11734;51.046;13.778;2022-11-20T02:42:57;-4.60;99.90
23130;DHT22;11734;51.046;13.778;2022-11-20T02:45:24;-4.60;99.90
23130;DHT22;11734;51.046;13.778;2022-11-20T02:47:51;-4.60;99.90
23130;DHT22;11734;51.046;13.778;2022-11-20T02:50:19;-4.60;99.90
23130;DHT22;11734;51.046;13.778;2022-11-20T02:52:45;-4.70;99.90
23130;DHT22;11734;51.046;13.778;2022-11-20T02:55:12;-4.70;99.90
23130;DHT22;11734;51.046;13.778;2022-11-20T02:57:39;-4.70;99.90
23130;DHT22;11734;51.046;13.778;2022-11-20T03:00:07;-4.70;99.90
23130;DHT22;11734;51.046;13.778;2022-11-20T03:02:34;-4.70;99.90
23130;DHT22;11734;51.046;13.778;2022-11-20T03:05:01;-4.80;99.90
23130;DHT22;11734;51.046;13.778;2022-11-20T03:07:28;-4.80;99.90
23130;DHT22;11734;51.046;13.778;2022-11-20T03:09:55;-4.90;99.90
23130;DHT22;11734;51.046;13.778;2022-11-20T03:12:21;-4.90;99.90
23130;DHT22;11734;51.046;13.778;2022-11-20T03:14:48;-4.90;99.90
23130;DHT22;11734;51.046;13.778;2022-11-20T03:17:19;-4.90;99.90
23130;DHT22;11734;51.046;13.778;2022-11-20T03:19:46;-4.80;99.90
23130;DHT22;11734;51.046;13.778;2022-11-20T03:22:13;-4.80;99.90
23130;DHT22;11734;51.046;13.778;2022-11-20T03:24:39;-4.90;99.90
23130;DHT22;11734;51.046;13.778;2022-11-20T03:27:06;-4.90;99.90
23130;DHT22;11734;51.046;13.778;2022-11-20T03:29:35;-4.80;99.90
23130;DHT22;11734;51.046;13.778;2022-11-20T03:32:02;-4.80;99.90
23130;DHT22;11734;51.046;13.778;2022-11-20T03:34:29;-4.80;99.90
23130;DHT22;11734;51.046;13.778;2022-11-20T03:36:56;-4.80;99.90
23130;DHT22;11734;51.046;13.778;2022-11-20T03:39:22;-4.80;99.90
23130;DHT22;11734;51.046;13.778;2022-11-20T03:41:50;-4.80;99.90
23130;DHT22;11734;51.046;13.778;2022-11-20T03:44:17;-4.90;99.90
23130;DHT22;11734;51.046;13.778;2022-11-20T03:46:47;-4.90;99.90
23130;DHT22;11734;51.046;13.778;2022-11-20T03:49:14;-5.00;99.90
23130;DHT22;11734;51.046;13.778;2022-11-20T03:51:41;-5.10;99.90
23130;DHT22;11734;51.046;13.778;2022-11-20T03:54:08;-5.10;99.90
23130;DHT22;11734;51.046;13.778;2022-11-20T03:56:37;-5.10;99.90
23130;DHT22;11734;51.046;13.778;2022-11-20T03:59:04;-5.10;99.90
23130;DHT22;11734;51.046;13.778;2022-11-20T04:01:34;-5.10;99.90
23130;DHT22;11734;51.046;13.778;2022-11-20T04:04:02;-5.10;99.90
23130;DHT22;11734;51.046;13.778;2022-11-20T04:06:35;-5.10;99.90
23130;DHT22;11734;51.046;13.778;2022-11-20T04:09:03;-5.10;99.90
23130;DHT22;11734;51.046;13.778;2022-11-20T04:11:35;-5.10;99.90
23130;DHT22;11734;51.046;13.778;2022-11-20T04:14:04;-5.10;99.90
23130;DHT22;11734;51.046;13.778;2022-11-20T04:16:34;-5.00;99.90
23130;DHT22;11734;51.046;13.778;2022-11-20T04:19:04;-5.10;99.90
23130;DHT22;11734;51.046;13.778;2022-11-20T04:21:31;-5.10;99.90
23130;DHT22;11734;51.046;13.778;2022-11-20T04:23:58;-5.20;99.90
23130;DHT22;11734;51.046;13.778;2022-11-20T04:26:27;-5.10;99.90
23130;DHT22;11734;51.046;13.778;2022-11-20T04:28:54;-5.20;99.90
23130;DHT22;11734;51.046;13.778;2022-11-20T04:31:27;-5.20;99.90
23130;DHT22;11734;51.046;13.778;2022-11-20T04:33:54;-5.20;99.90
23130;DHT22;11734;51.046;13.778;2022-11-20T04:36:23;-5.20;99.90
23130;DHT22;11734;51.046;13.778;2022-11-20T04:38:55;-5.20;99.90
23130;DHT22;11734;51.046;13.778;2022-11-20T04:41:25;-5.20;99.90
23130;DHT22;11734;51.046;13.778;2022-11-20T04:43:55;-5.30;99.90
23130;DHT22;11734;51.046;13.778;2022-11-20T04:46:34;-5.30;99.90
23130;DHT22;11734;51.046;13.778;2022-11-20T04:49:01;-5.30;99.90
23130;DHT22;11734;51.046;13.778;2022-11-20T04:51:28;-5.20;99.90
23130;DHT22;11734;51.046;13.778;2022-11-20T04:53:55;-5.30;99.90
23130;DHT22;11734;51.046;13.778;2022-11-20T04:56:22;-5.20;99.90
23130;DHT22;11734;51.046;13.778;2022-11-20T04:58:50;-5.20;99.90
23130;DHT22;11734;51.046;13.778;2022-11-20T05:01:20;-5.30;99.90
23130;DHT22;11734;51.046;13.778;2022-11-20T05:03:48;-5.30;99.90
23130;DHT22;11734;51.046;13.778;2022-11-20T05:06:17;-5.20;99.90
23130;DHT22;11734;51.046;13.778;2022-11-20T05:08:44;-5.30;99.90
23130;DHT22;11734;51.046;13.778;2022-11-20T05:11:13;-5.30;99.90
23130;DHT22;11734;51.046;13.778;2022-11-20T05:13:41;-5.30;99.90
23130;DHT22;11734;51.046;13.778;2022-11-20T05:16:14;-5.30;99.90
23130;DHT22;11734;51.046;13.778;2022-11-20T05:18:41;-5.30;99.90
23130;DHT22;11734;51.046;13.778;2022-11-20T05:21:09;-5.30;99.90
23130;DHT22;11734;51.046;13.778;2022-11-20T05:23:37;-5.30;99.90
23130;DHT22;11734;51.046;13.778;2022-11-20T05:26:06;-5.30;99.90
23130;DHT22;11734;51.046;13.778;2022-11-20T05:28:34;-5.30;99.90
23130;DHT22;11734;51.046;13.778;2022-11-20T05:31:19;-5.40;99.90
23130;DHT22;11734;51.046;13.778;2022-11-20T05:33:54;-5.40;99.90
23130;DHT22;11734;51.046;13.778;2022-11-20T05:36:22;-5.40;99.90
23130;DHT22;11734;51.046;13.778;2022-11-20T05:38:49;-5.40;99.90
23130;DHT22;11734;51.046;13.778;2022-11-20T05:41:19;-5.40;99.90
23130;DHT22;11734;51.046;13.778;2022-11-20T05:43:47;-5.40;99.90
23130;DHT22;11734;51.046;13.778;2022-11-20T05:46:16;-5.40;99.90
23130;DHT22;11734;51.046;13.778;2022-11-20T05:48:50;-5.50;99.90
23130;DHT22;11734;51.046;13.778;2022-11-20T05:51:18;-5.50;99.90
23130;DHT22;11734;51.046;13.778;2022-11-20T05:53:46;-5.50;99.90
23130;DHT22;11734;51.046;13.778;2022-11-20T05:56:21;-5.50;99.90
23130;DHT22;11734;51.046;13.778;2022-11-20T05:58:48;-5.50;99.90
23130;DHT22;11734;51.046;13.778;2022-11-20T06:01:23;-5.50;99.90
23130;DHT22;11734;51.046;13.778;2022-11-20T06:03:51;-5.50;99.90
23130;DHT22;11734;51.046;13.778;2022-11-20T06:06:19;-5.50;99.90
23130;DHT22;11734;51.046;13.778;2022-11-20T06:08:47;-5.40;99.90
23130;DHT22;11734;51.046;13.778;2022-11-20T06:11:16;-5.50;99.90
23130;DHT22;11734;51.046;13.778;2022-11-20T06:13:43;-5.50;99.90
23130;DHT22;11734;51.046;13.778;2022-11-20T06:16:12;-5.50;99.90
23130;DHT22;11734;51.046;13.778;2022-11-20T06:18:39;-5.50;99.90
23130;DHT22;11734;51.046;13.778;2022-11-20T06:21:08;-5.40;99.90
23130;DHT22;11734;51.046;13.778;2022-11-20T06:23:36;-5.40;99.90
23130;DHT22;11734;51.046;13.778;2022-11-20T06:26:09;-5.40;99.90
23130;DHT22;11734;51.046;13.778;2022-11-20T06:28:37;-5.40;99.90
23130;DHT22;11734;51.046;13.778;2022-11-20T06:31:04;-5.40;99.90
23130;DHT22;11734;51.046;13.778;2022-11-20T06:33:32;-5.50;99.90
23130;DHT22;11734;51.046;13.778;2022-11-20T06:36:00;-5.60;99.90
23130;DHT22;11734;51.046;13.778;2022-11-20T06:38:36;-5.60;99.90
23130;DHT22;11734;51.046;13.778;2022-11-20T06:41:04;-5.60;99.90
23130;DHT22;11734;51.046;13.778;2022-11-20T06:43:31;-5.50;99.90
23130;DHT22;11734;51.046;13.778;2022-11-20T06:45:58;-5.50;99.90
23130;DHT22;11734;51.046;13.778;2022-11-20T06:48:27;-5.50;99.90
23130;DHT22;11734;51.046;13.778;2022-11-20T06:50:54;-5.50;99.90
23130;DHT22;11734;51.046;13.778;2022-11-20T06:53:23;-5.40;99.90
23130;DHT22;11734;51.046;13.778;2022-11-20T06:55:51;-5.40;99.90
23130;DHT22;11734;51.046;13.778;2022-11-20T06:58:18;-5.40;99.90
23130;DHT22;11734;51.046;13.778;2022-11-20T07:00:45;-5.40;99.90
23130;DHT22;11734;51.046;13.778;2022-11-20T07:03:12;-5.30;99.90
23130;DHT22;11734;51.046;13.778;2022-11-20T07:05:39;-5.30;99.90
23130;DHT22;11734;51.046;13.778;2022-11-20T07:08:07;-5.30;99.90
23130;DHT22;11734;51.046;13.778;2022-11-20T07:10:34;-5.30;99.90
23130;DHT22;11734;51.046;13.778;2022-11-20T07:13:01;-5.30;99.90
23130;DHT22;11734;51.046;13.778;2022-11-20T07:15:28;-5.30;99.90
23130;DHT22;11734;51.046;13.778;2022-11-20T07:17:57;-5.20;99.90
23130;DHT22;11734;51.046;13.778;2022-11-20T07:20:25;-5.20;99.90
23130;DHT22;11734;51.046;13.778;2022-11-20T07:22:56;-5.20;99.90
23130;DHT22;11734;51.046;13.778;2022-11-20T07:25:24;-5.10;99.90
23130;DHT22;11734;51.046;13.778;2022-11-20T07:27:52;-5.00;99.90
23130;DHT22;11734;51.046;13.778;2022-11-20T07:30:19;-5.00;99.90
23130;DHT22;11734;51.046;13.778;2022-11-20T07:32:47;-4.90;99.90
23130;DHT22;11734;51.046;13.778;2022-11-20T07:35:17;-4.90;99.90
23130;DHT22;11734;51.046;13.778;2022-11-20T07:37:43;-4.80;99.90
23130;DHT22;11734;51.046;13.778;2022-11-20T07:40:12;-4.80;99.90
23130;DHT22;11734;51.046;13.778;2022-11-20T07:42:50;-4.70;99.90
23130;DHT22;11734;51.046;13.778;2022-11-20T07:45:19;-4.80;99.90
23130;DHT22;11734;51.046;13.778;2022-11-20T07:47:46;-4.60;99.90
23130;DHT22;11734;51.046;13.778;2022-11-20T07:50:14;-4.50;99.90
23130;DHT22;11734;51.046;13.778;2022-11-20T07:52:41;-4.40;99.90
23130;DHT22;11734;51.046;13.778;2022-11-20T07:55:08;-4.40;99.90
23130;DHT22;11734;51.046;13.778;2022-11-20T07:57:36;-4.30;99.90
23130;DHT22;11734;51.046;13.778;2022-11-20T08:00:04;-4.30;99.90
23130;DHT22;11734;51.046;13.778;2022-11-20T08:02:52;-4.30;99.90
23130;DHT22;11734;51.046;13.778;2022-11-20T08:05:18;-4.20;99.90
23130;DHT22;11734;51.046;13.778;2022-11-20T08:07:45;-4.10;99.90
23130;DHT22;11734;51.046;13.778;2022-11-20T08:10:30;-4.00;99.90
23130;DHT22;11734;51.046;13.778;2022-11-20T08:13:15;-4.00;99.90
23130;DHT22;11734;51.046;13.778;2022-11-20T08:16:00;-3.90;99.90
23130;DHT22;11734;51.046;13.778;2022-11-20T08:18:27;-3.80;99.90
23130;DHT22;11734;51.046;13.778;2022-11-20T08:21:02;-3.70;99.90
23130;DHT22;11734;51.046;13.778;2022-11-20T08:23:30;-3.70;99.90
23130;DHT22;11734;51.046;13.778;2022-11-20T08:25:57;-3.60;99.90
23130;DHT22;11734;51.046;13.778;2022-11-20T08:28:24;-3.50;99.90
23130;DHT22;11734;51.046;13.778;2022-11-20T08:30:51;-3.50;99.90
23130;DHT22;11734;51.046;13.778;2022-11-20T08:33:18;-3.50;99.90
23130;DHT22;11734;51.046;13.778;2022-11-20T08:35:45;-3.40;99.90
23130;DHT22;11734;51.046;13.778;2022-11-20T08:38:12;-3.30;99.90
23130;DHT22;11734;51.046;13.778;2022-11-20T08:40:39;-3.20;99.90
23130;DHT22;11734;51.046;13.778;2022-11-20T08:43:06;-3.10;99.90
23130;DHT22;11734;51.046;13.778;2022-11-20T08:45:34;-3.10;99.90
23130;DHT22;11734;51.046;13.778;2022-11-20T08:48:03;-3.00;99.90
23130;DHT22;11734;51.046;13.778;2022-11-20T08:50:31;-2.90;99.90
23130;DHT22;11734;51.046;13.778;2022-11-20T08:53:05;-2.80;99.90
23130;DHT22;11734;51.046;13.778;2022-11-20T08:55:33;-2.70;99.90
23130;DHT22;11734;51.046;13.778;2022-11-20T08:58:06;-2.60;99.90
23130;DHT22;11734;51.046;13.778;2022-11-20T09:00:34;-2.60;99.90
23130;DHT22;11734;51.046;13.778;2022-11-20T09:03:22;-2.50;99.90
23130;DHT22;11734;51.046;13.778;2022-11-20T09:06:01;-2.40;99.90
23130;DHT22;11734;51.046;13.778;2022-11-20T09:08:30;-2.30;99.90
23130;DHT22;11734;51.046;13.778;2022-11-20T09:10:57;-2.20;99.90
23130;DHT22;11734;51.046;13.778;2022-11-20T09:13:26;-2.10;99.90
23130;DHT22;11734;51.046;13.778;2022-11-20T09:16:07;-2.00;99.90
23130;DHT22;11734;51.046;13.778;2022-11-20T09:18:35;-1.90;99.90
23130;DHT22;11734;51.046;13.778;2022-11-20T09:21:07;-1.90;99.90
23130;DHT22;11734;51.046;13.778;2022-11-20T09:23:37;-1.80;99.90
23130;DHT22;11734;51.046;13.778;2022-11-20T09:26:09;-1.70;99.90
23130;DHT22;11734;51.046;13.778;2022-11-20T09:28:36;-1.60;99.90
23130;DHT22;11734;51.046;13.778;2022-11-20T09:31:07;-1.60;99.90
23130;DHT22;11734;51.046;13.778;2022-11-20T09:33:35;-1.50;99.90
23130;DHT22;11734;51.046;13.778;2022-11-20T09:36:02;-1.50;99.90
23130;DHT22;11734;51.046;13.778;2022-11-20T09:38:30;-1.40;99.90
23130;DHT22;11734;51.046;13.778;2022-11-20T09:41:03;-1.20;99.90
23130;DHT22;11734;51.046;13.778;2022-11-20T09:46:40;-1.10;99.90
23130;DHT22;11734;51.046;13.778;2022-11-20T09:49:34;-1.00;99.90
23130;DHT22;11734;51.046;13.778;2022-11-20T10:29:13;6.70;99.90
23130;DHT22;11734;51.046;13.778;2022-11-20T10:31:52;9.10;96.60
23130;DHT22;11734;51.046;13.778;2022-11-20T10:34:22;11.00;92.10
23130;DHT22;11734;51.046;13.778;2022-11-20T10:37:29;13.10;73.20
23130;DHT22;11734;51.046;13.778;2022-11-20T10:40:02;13.60;62.90
23130;DHT22;11734;51.046;13.778;2022-11-20T10:50:28;13.50;58.00
23130;DHT22;11734;51.046;13.778;2022-11-20T10:53:22;13.00;59.30
23130;DHT22;11734;51.046;13.778;2022-11-20T10:56:05;12.30;58.80
23130;DHT22;11734;51.046;13.778;2022-11-20T10:58:43;13.70;59.80
23130;DHT22;11734;51.046;13.778;2022-11-20T11:01:17;12.90;57.70
23130;DHT22;11734;51.046;13.778;2022-11-20T11:03:45;12.00;59.40
23130;DHT22;11734;51.046;13.778;2022-11-20T11:06:33;12.10;58.20
23130;DHT22;11734;51.046;13.778;2022-11-20T11:09:08;11.80;60.00
23130;DHT22;11734;51.046;13.778;2022-11-20T11:11:38;11.30;61.00
23130;DHT22;11734;51.046;13.778;2022-11-20T11:14:13;11.40;61.40
23130;DHT22;11734;51.046;13.778;2022-11-20T11:16:55;11.60;61.60
23130;DHT22;11734;51.046;13.778;2022-11-20T11:19:22;12.60;59.70
23130;DHT22;11734;51.046;13.778;2022-11-20T11:21:59;13.70;58.70
23130;DHT22;11734;51.046;13.778;2022-11-20T11:24:28;12.20;59.00
23130;DHT22;11734;51.046;13.778;2022-11-20T11:27:12;9.40;65.30
23130;DHT22;11734;51.046;13.778;2022-11-20T11:29:44;7.80;72.20
23130;DHT22;11734;51.046;13.778;2022-11-20T11:32:13;5.90;80.70
23130;DHT22;11734;51.046;13.778;2022-11-20T11:34:41;6.20;90.40
23130;DHT22;11734;51.046;13.778;2022-11-20T11:37:17;6.60;88.60
23130;DHT22;11734;51.046;13.778;2022-11-20T11:39:46;4.80;93.00
23130;DHT22;11734;51.046;13.778;2022-11-20T11:42:30;4.10;98.70
23130;DHT22;11734;51.046;13.778;2022-11-20T11:44:59;3.20;99.90
23130;DHT22;11734;51.046;13.778;2022-11-20T11:55:15;2.80;99.90
23130;DHT22;11734;51.046;13.778;2022-11-20T11:57:55;3.10;99.90
23130;DHT22;11734;51.046;13.778;2022-11-20T12:00:26;3.70;99.90
23130;DHT22;11734;51.046;13.778;2022-11-20T12:03:04;3.80;99.90
23130;DHT22;11734;51.046;13.778;2022-11-20T12:05:49;5.60;99.90
23130;DHT22;11734;51.046;13.778;2022-11-20T12:08:32;9.10;99.90
23130;DHT22;11734;51.046;13.778;2022-11-20T12:11:24;9.70;93.70
23130;DHT22;11734;51.046;13.778;2022-11-20T12:14:08;9.70;91.20
23130;DHT22;11734;51.046;13.778;2022-11-20T12:16:38;9.40;92.20
23130;DHT22;11734;51.046;13.778;2022-11-20T12:19:11;8.20;92.60
23130;DHT22;11734;51.046;13.778;2022-11-20T12:35:28;3.20;99.90
23130;DHT22;11734;51.046;13.778;2022-11-20T12:39:19;3.00;99.90
23130;DHT22;11734;51.046;13.778;2022-11-20T12:41:15;2.90;99.90
23130;DHT22;11734;51.046;13.778;2022-11-20T12:50:15;2.40;99.90
23130;DHT22;11734;51.046;13.778;2022-11-20T12:55:41;2.20;99.90
23130;DHT22;11734;51.046;13.778;2022-11-20T13:03:47;2.00;99.90
23130;DHT22;11734;51.046;13.778;2022-11-20T13:06:18;2.00;99.90
23130;DHT22;11734;51.046;13.778;2022-11-20T13:08:54;1.90;99.90
23130;DHT22;11734;51.046;13.778;2022-11-20T13:17:39;1.90;99.90
23130;DHT22;11734;51.046;13.778;2022-11-20T13:20:06;1.80;99.90
23130;DHT22;11734;51.046;13.778;2022-11-20T13:22:45;1.80;99.90
23130;DHT22;11734;51.046;13.778;2022-11-20T13:25:23;1.70;99.90
23130;DHT22;11734;51.046;13.778;2022-11-20T13:27:50;1.80;99.90
23130;DHT22;11734;51.046;13.778;2022-11-20T13:30:20;1.80;99.90
23130;DHT22;11734;51.046;13.778;2022-11-20T13:32:51;1.80;99.90
23130;DHT22;11734;51.046;13.778;2022-11-20T13:35:31;1.80;99.90
23130;DHT22;11734;51.046;13.778;2022-11-20T13:38:08;1.80;99.90
23130;DHT22;11734;51.046;13.778;2022-11-20T13:40:51;1.80;99.90
23130;DHT22;11734;51.046;13.778;2022-11-20T13:43:23;1.90;99.90
23130;DHT22;11734;51.046;13.778;2022-11-20T13:48:26;1.80;99.90
23130;DHT22;11734;51.046;13.778;2022-11-20T13:53:48;1.80;99.90
23130;DHT22;11734;51.046;13.778;2022-11-20T14:01:54;1.70;99.90
23130;DHT22;11734;51.046;13.778;2022-11-20T14:04:29;1.80;99.90
23130;DHT22;11734;51.046;13.778;2022-11-20T14:06:58;1.80;99.90
23130;DHT22;11734;51.046;13.778;2022-11-20T14:09:31;1.80;99.90
23130;DHT22;11734;51.046;13.778;2022-11-20T14:11:59;1.80;99.90
23130;DHT22;11734;51.046;13.778;2022-11-20T14:14:28;1.70;99.90
23130;DHT22;11734;51.046;13.778;2022-11-20T14:17:34;1.70;99.90
23130;DHT22;11734;51.046;13.778;2022-11-20T14:20:06;1.70;99.90
23130;DHT22;11734;51.046;13.778;2022-11-20T14:22:37;1.70;99.90
23130;DHT22;11734;51.046;13.778;2022-11-20T14:25:20;1.60;99.90
23130;DHT22;11734;51.046;13.778;2022-11-20T14:27:57;1.60;99.90
23130;DHT22;11734;51.046;13.778;2022-11-20T14:33:03;1.70;99.90
23130;DHT22;11734;51.046;13.778;2022-11-20T14:35:35;1.70;99.90
23130;DHT22;11734;51.046;13.778;2022-11-20T14:38:04;1.50;99.90
23130;DHT22;11734;51.046;13.778;2022-11-20T14:40:35;1.60;99.90
23130;DHT22;11734;51.046;13.778;2022-11-20T14:43:20;1.50;99.90
23130;DHT22;11734;51.046;13.778;2022-11-20T14:46:02;1.50;99.90
23130;DHT22;11734;51.046;13.778;2022-11-20T14:48:41;1.40;99.90
23130;DHT22;11734;51.046;13.778;2022-11-20T14:51:38;1.30;99.90
23130;DHT22;11734;51.046;13.778;2022-11-20T14:54:16;1.20;99.90
23130;DHT22;11734;51.046;13.778;2022-11-20T14:57:02;1.20;99.90
23130;DHT22;11734;51.046;13.778;2022-11-20T14:59:32;1.10;99.90
23130;DHT22;11734;51.046;13.778;2022-11-20T15:02:10;1.00;99.90
23130;DHT22;11734;51.046;13.778;2022-11-20T15:04:58;0.90;99.90
23130;DHT22;11734;51.046;13.778;2022-11-20T15:07:40;0.80;99.90
23130;DHT22;11734;51.046;13.778;2022-11-20T15:10:23;0.70;99.90
23130;DHT22;11734;51.046;13.778;2022-11-20T15:18:09;0.50;99.90
23130;DHT22;11734;51.046;13.778;2022-11-20T15:20:37;0.50;99.90
23130;DHT22;11734;51.046;13.778;2022-11-20T15:23:16;0.40;99.90
23130;DHT22;11734;51.046;13.778;2022-11-20T15:25:46;0.40;99.90
23130;DHT22;11734;51.046;13.778;2022-11-20T15:28:41;0.30;99.90
23130;DHT22;11734;51.046;13.778;2022-11-20T15:31:06;0.20;99.90
23130;DHT22;11734;51.046;13.778;2022-11-20T15:33:33;0.20;99.90
23130;DHT22;11734;51.046;13.778;2022-11-20T15:36:01;0.10;99.90
23130;DHT22;11734;51.046;13.778;2022-11-20T15:38:28;0.00;99.90
23130;DHT22;11734;51.046;13.778;2022-11-20T15:40:54;0.00;99.90
23130;DHT22;11734;51.046;13.778;2022-11-20T15:43:22;-0.10;99.90
23130;DHT22;11734;51.046;13.778;2022-11-20T15:45:56;-0.10;99.90
23130;DHT22;11734;51.046;13.778;2022-11-20T15:48:53;-0.20;99.90
23130;DHT22;11734;51.046;13.778;2022-11-20T15:53:57;-0.30;99.90
23130;DHT22;11734;51.046;13.778;2022-11-20T15:56:24;-0.30;99.90
23130;DHT22;11734;51.046;13.778;2022-11-20T15:58:51;-0.40;99.90
23130;DHT22;11734;51.046;13.778;2022-11-20T16:01:21;-0.40;99.90
23130;DHT22;11734;51.046;13.778;2022-11-20T16:03:48;-0.40;99.90
23130;DHT22;11734;51.046;13.778;2022-11-20T16:06:15;-0.50;99.90
23130;DHT22;11734;51.046;13.778;2022-11-20T16:08:45;-0.40;99.90
23130;DHT22;11734;51.046;13.778;2022-11-20T16:11:14;-0.50;99.90
23130;DHT22;11734;51.046;13.778;2022-11-20T16:13:41;-0.50;99.90
23130;DHT22;11734;51.046;13.778;2022-11-20T16:16:46;-0.50;99.90
23130;DHT22;11734;51.046;13.778;2022-11-20T16:19:13;-0.50;99.90
23130;DHT22;11734;51.046;13.778;2022-11-20T16:21:42;-0.50;99.90
23130;DHT22;11734;51.046;13.778;2022-11-20T16:24:11;-0.60;99.90
23130;DHT22;11734;51.046;13.778;2022-11-20T16:26:39;-0.60;99.90
23130;DHT22;11734;51.046;13.778;2022-11-20T16:29:07;-0.60;99.90
23130;DHT22;11734;51.046;13.778;2022-11-20T16:31:34;-0.60;99.90
23130;DHT22;11734;51.046;13.778;2022-11-20T16:34:06;-0.60;99.90
23130;DHT22;11734;51.046;13.778;2022-11-20T16:36:41;-0.60;99.90
23130;DHT22;11734;51.046;13.778;2022-11-20T16:39:10;-0.60;99.90
23130;DHT22;11734;51.046;13.778;2022-11-20T16:41:38;-0.60;99.90
23130;DHT22;11734;51.046;13.778;2022-11-20T16:44:10;-0.60;99.90
23130;DHT22;11734;51.046;13.778;2022-11-20T16:46:37;-0.60;99.90
23130;DHT22;11734;51.046;13.778;2022-11-20T16:49:11;-0.70;99.90
23130;DHT22;11734;51.046;13.778;2022-11-20T16:51:38;-0.70;99.90
23130;DHT22;11734;51.046;13.778;2022-11-20T16:54:07;-0.70;99.90
23130;DHT22;11734;51.046;13.778;2022-11-20T16:56:35;-0.70;99.90
23130;DHT22;11734;51.046;13.778;2022-11-20T16:59:02;-0.70;99.90
23130;DHT22;11734;51.046;13.778;2022-11-20T17:01:30;-0.70;99.90
23130;DHT22;11734;51.046;13.778;2022-11-20T17:03:59;-0.80;99.90
23130;DHT22;11734;51.046;13.778;2022-11-20T17:06:31;-0.80;99.90
23130;DHT22;11734;51.046;13.778;2022-11-20T17:08:59;-0.80;99.90
23130;DHT22;11734;51.046;13.778;2022-11-20T17:11:27;-0.80;99.90
23130;DHT22;11734;51.046;13.778;2022-11-20T17:13:55;-0.80;99.90
23130;DHT22;11734;51.046;13.778;2022-11-20T17:16:23;-0.90;99.90
23130;DHT22;11734;51.046;13.778;2022-11-20T17:18:50;-0.90;99.90
23130;DHT22;11734;51.046;13.778;2022-11-20T17:21:18;-1.00;99.90
23130;DHT22;11734;51.046;13.778;2022-11-20T17:23:46;-1.00;99.90
23130;DHT22;11734;51.046;13.778;2022-11-20T17:26:15;-1.00;99.90
23130;DHT22;11734;51.046;13.778;2022-11-20T17:28:45;-1.00;99.90
23130;DHT22;11734;51.046;13.778;2022-11-20T17:31:15;-1.10;99.90
23130;DHT22;11734;51.046;13.778;2022-11-20T17:33:43;-1.10;99.90
23130;DHT22;11734;51.046;13.778;2022-11-20T17:36:14;-1.10;99.90
23130;DHT22;11734;51.046;13.778;2022-11-20T17:38:42;-1.20;99.90
23130;DHT22;11734;51.046;13.778;2022-11-20T17:41:11;-1.20;99.90
23130;DHT22;11734;51.046;13.778;2022-11-20T17:43:39;-1.10;99.90